Terminal Aerodrome Forecast
Issued by NWS Charleston, WV

Current Version | Previous Version | Text Only | Print | Product List | Glossary Off
Versions: 1 2 3 4 5 6 7 8 9 10 11 12 13 14 15 16 17 18 19 20 21 22 23 24 25

892
FTUS41 KRLX 262332
TAFCRW
TAF
KCRW 262332Z 2700/2724 24004KT 6SM SHRA VCTS BKN040CB
      TEMPO 2702/2704 VRB11G20KT 2SM TSRA BR BKN018CB
     FM270500 00000KT 6SM SHRA BR VCTS BKN025CB
     FM270700 00000KT 6SM BR BKN020
     FM271000 VRB03KT 3SM HZ OVC008
     FM271600 31004KT 6SM HZ BKN015
     FM272100 32004KT 3SM SHRA HZ VCTS BKN015CB
     FM272300 VRB03KT 4SM HZ VCTS BKN020CB=

USA.gov is the U.S. government's official web portal to all federal, state and local government web resources and services.